createdAt,value
2018-04-17T00:02:01.776Z,12.40
2018-04-17T00:04:35.059Z,12.30
2018-04-17T00:07:01.355Z,12.30
2018-04-17T00:09:27.609Z,12.30
2018-04-17T00:11:53.882Z,12.30
2018-04-17T00:14:20.181Z,12.20
2018-04-17T00:16:46.497Z,12.10
2018-04-17T00:19:12.860Z,12.10
2018-04-17T00:21:39.131Z,12.00
2018-04-17T00:24:05.490Z,11.90
2018-04-17T00:26:32.080Z,11.80
2018-04-17T00:28:58.900Z,11.80
2018-04-17T00:31:25.190Z,11.70
2018-04-17T00:33:51.464Z,11.60
2018-04-17T00:36:17.765Z,11.60
2018-04-17T00:38:44.069Z,11.80
2018-04-17T00:41:10.347Z,11.70
2018-04-17T00:43:36.647Z,11.70
2018-04-17T00:46:02.962Z,11.70
2018-04-17T00:48:29.979Z,11.60
2018-04-17T00:50:56.338Z,11.60
2018-04-17T00:53:42.093Z,11.50
2018-04-17T00:56:08.407Z,11.50
2018-04-17T00:58:34.682Z,11.50
2018-04-17T01:01:01.766Z,11.30
2018-04-17T01:03:28.041Z,11.40
2018-04-17T01:05:54.406Z,11.30
2018-04-17T01:08:20.725Z,11.30
2018-04-17T01:10:47.731Z,11.10
2018-04-17T01:13:14.057Z,11.10
2018-04-17T01:15:41.151Z,11.00
2018-04-17T01:18:08.176Z,11.00
2018-04-17T01:20:34.476Z,11.00
2018-04-17T01:23:00.745Z,11.00
2018-04-17T01:25:27.018Z,10.90
2018-04-17T01:27:53.319Z,10.90
2018-04-17T01:30:20.363Z,10.80
2018-04-17T01:32:47.357Z,10.80
2018-04-17T01:35:13.616Z,10.80
2018-04-17T01:37:39.898Z,10.80
2018-04-17T01:40:06.203Z,10.70
2018-04-17T01:42:32.507Z,10.70
2018-04-17T01:44:58.795Z,10.80
2018-04-17T01:47:25.114Z,10.70
2018-04-17T01:49:51.384Z,10.60
2018-04-17T01:52:17.674Z,10.70
2018-04-17T01:54:43.996Z,10.70
2018-04-17T01:57:10.349Z,10.60
2018-04-17T01:59:36.684Z,10.70
2018-04-17T02:02:02.949Z,10.70
2018-04-17T02:04:29.245Z,10.80
2018-04-17T02:06:55.524Z,10.90
2018-04-17T02:09:22.537Z,10.90
2018-04-17T02:11:48.813Z,10.80
2018-04-17T02:14:15.832Z,10.90
2018-04-17T02:16:42.112Z,10.80
2018-04-17T02:19:08.500Z,10.80
2018-04-17T02:21:34.797Z,10.80
2018-04-17T02:24:01.088Z,10.90
2018-04-17T02:26:28.155Z,11.00
2018-04-17T02:28:54.463Z,11.00
2018-04-17T02:31:21.556Z,11.10
2018-04-17T02:33:47.837Z,11.10
2018-04-17T02:36:14.866Z,11.20
2018-04-17T02:38:41.227Z,11.10
2018-04-17T02:41:08.238Z,11.10
2018-04-17T02:43:34.566Z,11.10
2018-04-17T02:46:00.857Z,11.10
2018-04-17T02:48:27.143Z,11.10
2018-04-17T02:50:53.463Z,11.20
2018-04-17T02:53:19.774Z,11.10
2018-04-17T02:55:46.077Z,11.10
2018-04-17T02:58:12.449Z,11.10
2018-04-17T03:00:40.552Z,11.10
2018-04-17T03:03:08.513Z,11.10
2018-04-17T03:05:34.846Z,11.10
2018-04-17T03:08:01.164Z,11.10
2018-04-17T03:10:27.431Z,11.10
2018-04-17T03:12:53.741Z,11.10
2018-04-17T03:15:20.774Z,11.00
2018-04-17T03:17:47.058Z,11.00
2018-04-17T03:20:13.430Z,11.00
2018-04-17T03:22:39.726Z,11.00
2018-04-17T03:25:05.982Z,11.00
2018-04-17T03:27:32.286Z,11.00
2018-04-17T03:29:58.561Z,10.90
2018-04-17T03:32:24.905Z,11.00
2018-04-17T03:34:51.208Z,11.00
2018-04-17T03:37:17.479Z,10.90
2018-04-17T03:39:43.803Z,10.90
2018-04-17T03:42:10.839Z,11.00
2018-04-17T03:44:37.237Z,10.90
2018-04-17T03:47:03.670Z,11.00
2018-04-17T03:49:29.920Z,11.00
2018-04-17T03:51:56.247Z,11.00
2018-04-17T03:54:22.664Z,11.00
2018-04-17T03:56:49.119Z,11.00
2018-04-17T03:59:15.394Z,10.90
2018-04-17T04:01:41.706Z,10.90
2018-04-17T04:04:08.788Z,10.80
2018-04-17T04:06:35.079Z,10.80
2018-04-17T04:09:02.153Z,10.70
2018-04-17T04:11:28.431Z,10.70
2018-04-17T04:13:54.796Z,10.70
2018-04-17T04:16:40.507Z,10.60
2018-04-17T04:19:25.377Z,10.70
2018-04-17T04:22:10.171Z,10.70
2018-04-17T04:24:55.036Z,10.70
2018-04-17T04:27:21.349Z,10.60
2018-04-17T04:29:47.629Z,10.60
2018-04-17T04:32:14.655Z,10.70
2018-04-17T04:34:40.951Z,10.70
2018-04-17T04:37:07.284Z,10.70
2018-04-17T04:39:34.498Z,10.70
2018-04-17T04:42:01.728Z,10.80
2018-04-17T04:44:28.253Z,10.80
2018-04-17T04:46:54.530Z,10.80
2018-04-17T04:49:20.865Z,10.90
2018-04-17T04:51:47.166Z,11.00
2018-04-17T04:54:13.439Z,11.00
2018-04-17T04:56:39.711Z,11.00
2018-04-17T04:59:06.003Z,11.10
2018-04-17T05:01:32.365Z,11.20
2018-04-17T05:03:58.706Z,11.40
2018-04-17T05:06:25.037Z,11.40
2018-04-17T05:08:51.362Z,11.50
2018-04-17T05:11:17.634Z,11.60
2018-04-17T05:13:43.957Z,11.80
2018-04-17T05:16:10.257Z,11.80
2018-04-17T05:18:36.546Z,11.90
2018-04-17T05:21:02.832Z,12.00
2018-04-17T05:23:29.104Z,12.10
2018-04-17T05:25:55.415Z,12.20
2018-04-17T05:28:22.410Z,12.40
2018-04-17T05:30:48.736Z,12.40
2018-04-17T05:33:15.044Z,12.60
2018-04-17T05:35:41.299Z,12.80
2018-04-17T05:38:07.561Z,13.00
2018-04-17T05:40:40.782Z,13.10
2018-04-17T05:43:07.084Z,13.20
2018-04-17T05:45:33.398Z,13.20
2018-04-17T05:47:59.659Z,13.40
2018-04-17T05:50:26.715Z,13.50
2018-04-17T05:52:52.965Z,13.50
2018-04-17T05:55:19.274Z,13.70
2018-04-17T05:57:46.304Z,13.40
2018-04-17T06:00:19.719Z,13.40
2018-04-17T06:02:46.013Z,13.20
2018-04-17T06:05:12.296Z,13.10
2018-04-17T06:07:38.566Z,13.20
2018-04-17T06:10:04.902Z,13.30
2018-04-17T06:12:31.199Z,13.40
2018-04-17T06:14:57.461Z,13.50
2018-04-17T06:17:23.713Z,13.60
2018-04-17T06:19:50.711Z,13.40
2018-04-17T06:22:16.968Z,13.30
2018-04-17T06:24:43.258Z,13.50
2018-04-17T06:27:09.548Z,13.40
2018-04-17T06:29:35.816Z,13.50
2018-04-17T06:32:02.156Z,13.50
2018-04-17T06:34:28.453Z,13.50
2018-04-17T06:36:55.550Z,13.60
2018-04-17T06:39:21.900Z,13.60
2018-04-17T06:41:48.283Z,13.70
2018-04-17T06:44:14.493Z,13.60
2018-04-17T06:46:41.535Z,13.90
2018-04-17T06:49:08.563Z,14.00
2018-04-17T06:51:34.833Z,14.00
2018-04-17T06:54:01.138Z,13.80
2018-04-17T06:56:27.483Z,13.70
2018-04-17T06:58:54.534Z,14.00
2018-04-17T07:01:21.585Z,14.20
2018-04-17T07:03:47.877Z,14.10
2018-04-17T07:06:14.165Z,14.20
2018-04-17T07:08:40.455Z,14.10
2018-04-17T07:11:06.775Z,14.10
2018-04-17T07:13:33.097Z,14.20
2018-04-17T07:15:59.375Z,14.10
2018-04-17T07:18:25.658Z,14.00
2018-04-17T07:20:51.943Z,13.90
2018-04-17T07:23:18.282Z,14.00
2018-04-17T07:25:44.570Z,13.80
2018-04-17T07:28:11.639Z,13.80
2018-04-17T07:30:38.036Z,13.80
2018-04-17T07:33:04.328Z,14.00
2018-04-17T07:35:30.597Z,14.20
2018-04-17T07:37:56.922Z,14.10
2018-04-17T07:40:23.245Z,14.40
2018-04-17T07:42:49.512Z,14.40
2018-04-17T07:45:16.512Z,14.60
2018-04-17T07:47:55.187Z,14.60
2018-04-17T07:50:22.255Z,14.60
2018-04-17T07:52:48.550Z,14.60
2018-04-17T07:55:15.585Z,14.50
2018-04-17T07:57:41.891Z,14.50
2018-04-17T08:00:08.176Z,14.30
2018-04-17T08:02:34.506Z,14.50
2018-04-17T08:05:00.887Z,14.60
2018-04-17T08:07:27.143Z,14.80
2018-04-17T08:09:53.436Z,14.80
2018-04-17T08:12:19.736Z,14.70
2018-04-17T08:14:45.988Z,14.60
2018-04-17T08:17:12.342Z,14.50
2018-04-17T08:19:38.608Z,14.50
2018-04-17T08:22:05.989Z,14.40
2018-04-17T08:24:32.295Z,14.40
2018-04-17T08:26:59.352Z,14.60
2018-04-17T08:29:26.366Z,14.60
2018-04-17T08:31:52.702Z,14.60
2018-04-17T08:34:19.012Z,14.60
2018-04-17T08:36:45.255Z,14.60
2018-04-17T08:39:11.679Z,14.60
2018-04-17T08:41:38.005Z,14.50
2018-04-17T08:44:04.327Z,14.40
2018-04-17T08:46:30.651Z,14.50
2018-04-17T08:48:57.017Z,14.90
2018-04-17T08:51:23.308Z,14.90
2018-04-17T08:53:50.544Z,14.90
2018-04-17T08:56:16.863Z,15.10
2018-04-17T08:58:44.047Z,15.50
2018-04-17T09:01:10.326Z,15.40
2018-04-17T09:03:36.634Z,15.50
2018-04-17T09:06:02.920Z,15.50
2018-04-17T09:08:29.188Z,15.40
2018-04-17T09:10:55.441Z,15.60
2018-04-17T09:13:21.728Z,15.70
2018-04-17T09:15:48.057Z,15.70
2018-04-17T09:18:14.367Z,15.80
2018-04-17T09:20:40.683Z,15.50
2018-04-17T09:23:07.742Z,15.50
2018-04-17T09:25:34.834Z,15.40
2018-04-17T09:28:01.225Z,15.40
2018-04-17T09:30:27.539Z,15.40
2018-04-17T09:32:54.608Z,15.50
2018-04-17T09:35:20.861Z,15.50
2018-04-17T09:37:47.133Z,15.60
2018-04-17T09:40:13.437Z,15.70
2018-04-17T09:42:39.749Z,15.80
2018-04-17T09:45:05.999Z,16.30
2018-04-17T09:47:32.452Z,16.60
2018-04-17T09:49:58.771Z,16.90
2018-04-17T09:52:25.079Z,17.30
2018-04-17T09:54:51.349Z,17.60
2018-04-17T09:57:17.721Z,18.00
2018-04-17T09:59:44.011Z,18.50
2018-04-17T10:02:12.086Z,18.70
2018-04-17T10:04:38.436Z,18.60
2018-04-17T10:07:05.498Z,17.90
2018-04-17T10:09:31.818Z,17.90
2018-04-17T10:11:58.867Z,18.50
2018-04-17T10:14:25.211Z,18.50
2018-04-17T10:16:51.586Z,18.70
2018-04-17T10:19:17.931Z,18.50
2018-04-17T10:21:44.244Z,17.60
2018-04-17T10:24:10.586Z,18.60
2018-04-17T10:26:36.925Z,19.20
2018-04-17T10:29:03.456Z,19.80
2018-04-17T10:31:30.684Z,20.20
2018-04-17T10:33:57.116Z,20.20
2018-04-17T10:36:23.430Z,20.00
2018-04-17T10:38:49.812Z,20.10
2018-04-17T10:41:16.196Z,20.20
2018-04-17T10:43:43.454Z,20.50
2018-04-17T10:46:09.788Z,20.20
2018-04-17T10:48:36.183Z,20.10
2018-04-17T10:51:02.487Z,20.00
2018-04-17T10:53:28.791Z,20.50
2018-04-17T10:55:55.150Z,20.10
2018-04-17T10:58:21.507Z,20.70
2018-04-17T11:00:49.416Z,21.10
2018-04-17T11:03:15.710Z,21.10
2018-04-17T11:05:42.008Z,21.00
2018-04-17T11:08:08.313Z,20.30
2018-04-17T11:10:34.580Z,20.50
2018-04-17T11:13:00.871Z,20.50
2018-04-17T11:15:27.143Z,21.00
2018-04-17T11:17:53.534Z,21.00
2018-04-17T11:20:19.860Z,21.10
2018-04-17T11:22:46.170Z,21.30
2018-04-17T11:25:12.563Z,21.40
2018-04-17T11:27:38.890Z,21.20
2018-04-17T11:30:05.233Z,21.60
2018-04-17T11:32:31.534Z,21.70
2018-04-17T11:34:58.676Z,22.30
2018-04-17T11:37:25.019Z,22.30
2018-04-17T11:39:51.334Z,22.50
2018-04-17T11:42:17.679Z,22.90
2018-04-17T11:44:44.023Z,23.90
2018-04-17T11:47:10.393Z,25.00
2018-04-17T11:49:36.773Z,26.00
2018-04-17T11:52:03.135Z,26.50
2018-04-17T11:54:30.312Z,26.60
2018-04-17T11:56:57.292Z,26.70
2018-04-17T11:59:23.708Z,26.70
2018-04-17T12:01:50.093Z,27.40
2018-04-17T12:04:16.411Z,28.00
2018-04-17T12:06:42.745Z,29.20
2018-04-17T12:09:09.041Z,30.50
2018-04-17T12:11:35.390Z,31.30
2018-04-17T12:14:01.767Z,31.30
2018-04-17T12:16:28.864Z,31.80
2018-04-17T12:18:55.223Z,31.80
2018-04-17T12:21:21.630Z,31.20
2018-04-17T12:23:47.928Z,31.70
2018-04-17T12:26:14.237Z,32.40
2018-04-17T12:28:40.565Z,32.80
2018-04-17T12:31:06.882Z,31.20
2018-04-17T12:33:33.293Z,31.70
2018-04-17T12:35:59.744Z,32.90
2018-04-17T12:38:26.131Z,33.20
2018-04-17T12:40:52.433Z,34.20
2018-04-17T12:43:19.475Z,30.60
2018-04-17T12:45:45.873Z,30.50
2018-04-17T12:48:12.210Z,31.00
2018-04-17T12:50:38.658Z,31.00
2018-04-17T12:53:05.067Z,31.50
2018-04-17T12:55:31.390Z,33.90
2018-04-17T12:57:57.677Z,34.20
2018-04-17T13:00:24.747Z,34.20
2018-04-17T13:02:51.114Z,34.20
2018-04-17T13:05:17.456Z,34.40
2018-04-17T13:07:45.801Z,35.10
2018-04-17T13:10:12.129Z,35.70
2018-04-17T13:12:38.431Z,36.10
2018-04-17T13:15:05.546Z,36.10
2018-04-17T13:17:31.923Z,36.10
2018-04-17T13:20:01.043Z,36.30
2018-04-17T13:22:27.411Z,36.30
2018-04-17T13:24:53.719Z,34.00
2018-04-17T13:27:20.042Z,34.10
2018-04-17T13:29:46.375Z,33.40
2018-04-17T13:32:13.453Z,34.30
2018-04-17T13:34:40.488Z,32.70
2018-04-17T13:37:06.806Z,32.70
2018-04-17T13:39:33.155Z,33.70
2018-04-17T13:41:59.479Z,33.90
2018-04-17T13:44:25.862Z,35.00
2018-04-17T13:46:52.931Z,35.50
2018-04-17T13:49:19.217Z,35.50
2018-04-17T13:51:45.509Z,35.90
2018-04-17T13:54:11.888Z,37.00
2018-04-17T13:56:38.148Z,37.70
2018-04-17T13:59:04.540Z,37.20
2018-04-17T14:01:30.847Z,36.40
2018-04-17T14:03:57.194Z,37.60
2018-04-17T14:06:23.515Z,37.30
2018-04-17T14:08:49.881Z,36.00
2018-04-17T14:11:16.900Z,36.00
2018-04-17T14:13:43.214Z,36.00
2018-04-17T14:16:09.507Z,35.80
2018-04-17T14:18:36.572Z,35.90
2018-04-17T14:21:02.902Z,35.90
2018-04-17T14:23:29.244Z,36.00
2018-04-17T14:25:55.580Z,36.70
2018-04-17T14:28:21.884Z,37.20
2018-04-17T14:30:48.183Z,37.10
2018-04-17T14:33:14.467Z,36.70
2018-04-17T14:35:40.758Z,35.50
2018-04-17T14:38:07.807Z,36.00
2018-04-17T14:40:34.851Z,35.10
2018-04-17T14:43:01.983Z,36.30
2018-04-17T14:45:28.266Z,36.20
2018-04-17T14:47:54.637Z,36.30
2018-04-17T14:50:20.938Z,36.60
2018-04-17T14:52:48.168Z,37.00
2018-04-17T14:55:14.588Z,37.00
2018-04-17T14:57:41.625Z,37.80
2018-04-17T15:00:08.705Z,37.10
2018-04-17T15:02:35.064Z,37.00
2018-04-17T15:05:01.344Z,34.10
2018-04-17T15:07:27.713Z,31.60
2018-04-17T15:09:53.965Z,31.60
2018-04-17T15:12:20.339Z,31.60
2018-04-17T15:14:47.391Z,33.90
2018-04-17T15:17:13.723Z,33.90
2018-04-17T15:19:40.739Z,34.30
2018-04-17T15:22:07.005Z,34.30
2018-04-17T15:24:33.348Z,33.50
2018-04-17T15:26:59.621Z,33.90
2018-04-17T15:29:25.915Z,34.10
2018-04-17T15:31:52.178Z,33.90
2018-04-17T15:34:18.473Z,33.50
2018-04-17T15:36:44.811Z,34.00
2018-04-17T15:39:11.100Z,34.20
2018-04-17T15:41:37.803Z,34.50
2018-04-17T15:44:04.131Z,33.40
2018-04-17T15:46:30.405Z,31.80
2018-04-17T15:48:57.482Z,33.70
2018-04-17T15:51:23.811Z,33.70
2018-04-17T15:53:50.129Z,33.70
2018-04-17T15:56:16.420Z,34.40
2018-04-17T15:58:42.731Z,35.60
2018-04-17T16:01:09.065Z,36.40
2018-04-17T16:03:35.487Z,36.40
2018-04-17T16:06:01.736Z,35.80
2018-04-17T16:08:28.021Z,33.80
2018-04-17T16:10:54.296Z,33.40
2018-04-17T16:13:20.598Z,34.00
2018-04-17T16:15:46.924Z,32.80
2018-04-17T16:18:13.189Z,33.40
2018-04-17T16:20:39.519Z,33.30
2018-04-17T16:23:05.808Z,33.10
2018-04-17T16:25:32.148Z,32.80
2018-04-17T16:27:58.418Z,32.70
2018-04-17T16:30:24.759Z,32.70
2018-04-17T16:32:51.058Z,32.00
2018-04-17T16:35:17.383Z,31.50
2018-04-17T16:37:43.718Z,31.00
2018-04-17T16:40:10.006Z,30.80
2018-04-17T16:42:37.034Z,31.60
2018-04-17T16:45:03.352Z,31.60
2018-04-17T16:47:29.597Z,31.50
2018-04-17T16:49:56.033Z,31.30
2018-04-17T16:52:23.071Z,30.20
2018-04-17T16:54:49.379Z,30.20
2018-04-17T16:57:15.661Z,30.20
2018-04-17T16:59:42.722Z,28.70
2018-04-17T17:02:09.038Z,28.70
2018-04-17T17:04:36.050Z,28.10
2018-04-17T17:07:02.462Z,28.00
2018-04-17T17:09:28.785Z,27.90
2018-04-17T17:11:55.118Z,26.40
2018-04-17T17:14:21.390Z,26.70
2018-04-17T17:16:47.746Z,25.20
2018-04-17T17:19:14.046Z,23.70
2018-04-17T17:21:40.324Z,23.00
2018-04-17T17:24:06.656Z,21.60
2018-04-17T17:26:33.045Z,21.00
2018-04-17T17:28:59.319Z,20.40
2018-04-17T17:31:25.669Z,19.80
2018-04-17T17:33:51.952Z,19.20
2018-04-17T17:36:19.038Z,18.40
2018-04-17T17:38:45.411Z,18.30
2018-04-17T17:41:11.708Z,18.20
2018-04-17T17:43:38.101Z,18.20
2018-04-17T17:46:05.117Z,17.90
2018-04-17T17:48:31.473Z,17.90
2018-04-17T17:50:58.547Z,17.50
2018-04-17T17:53:24.828Z,17.50
2018-04-17T17:55:51.142Z,17.40
2018-04-17T17:58:17.477Z,17.10
2018-04-17T18:00:43.783Z,17.00
2018-04-17T18:03:10.153Z,16.80
2018-04-17T18:05:36.465Z,16.60
2018-04-17T18:08:02.815Z,16.50
2018-04-17T18:10:30.240Z,16.40
2018-04-17T18:12:56.599Z,16.40
2018-04-17T18:15:23.063Z,16.30
2018-04-17T18:17:50.306Z,15.90
2018-04-17T18:20:17.460Z,15.70
2018-04-17T18:22:43.795Z,15.70
2018-04-17T18:25:10.955Z,15.40
2018-04-17T18:27:38.098Z,15.30
2018-04-17T18:30:05.167Z,15.20
2018-04-17T18:32:31.480Z,15.10
2018-04-17T18:34:58.552Z,15.00
2018-04-17T18:37:24.838Z,15.00
2018-04-17T18:39:51.623Z,14.90
2018-04-17T18:42:17.944Z,14.80
2018-04-17T18:44:44.380Z,14.60
2018-04-17T18:47:11.289Z,14.50
2018-04-17T18:49:37.761Z,14.40
2018-04-17T18:52:04.340Z,14.30
2018-04-17T18:54:30.738Z,14.10
2018-04-17T18:56:57.240Z,14.00
2018-04-17T18:59:24.762Z,13.90
2018-04-17T19:01:51.185Z,13.90
2018-04-17T19:04:18.009Z,13.80
2018-04-17T19:06:44.408Z,13.80
2018-04-17T19:09:10.972Z,13.70
2018-04-17T19:11:37.554Z,13.70
2018-04-17T19:14:03.935Z,13.60
2018-04-17T19:16:31.198Z,13.50
2018-04-17T19:18:57.604Z,13.40
2018-04-17T19:21:24.810Z,13.30
2018-04-17T19:23:51.334Z,13.30
2018-04-17T19:26:18.898Z,13.30
2018-04-17T19:28:45.457Z,13.20
2018-04-17T19:31:12.727Z,13.10
2018-04-17T19:33:41.316Z,13.00
2018-04-17T19:36:16.942Z,12.90
2018-04-17T19:38:43.689Z,13.00
2018-04-17T19:41:11.162Z,12.80
2018-04-17T19:43:38.924Z,12.70
2018-04-17T19:46:05.378Z,12.70
2018-04-17T19:48:32.461Z,12.60
2018-04-17T19:50:58.792Z,12.50
2018-04-17T19:53:25.234Z,12.50
2018-04-17T19:55:51.583Z,12.40
2018-04-17T19:58:18.669Z,12.40
2018-04-17T20:00:49.684Z,12.40
2018-04-17T20:03:16.053Z,12.40
2018-04-17T20:05:43.160Z,12.30
2018-04-17T20:08:09.809Z,12.20
2018-04-17T20:10:36.964Z,12.20
2018-04-17T20:13:03.283Z,12.10
2018-04-17T20:15:30.534Z,12.10
2018-04-17T20:17:56.872Z,12.10
2018-04-17T20:20:23.504Z,12.00
2018-04-17T20:22:49.799Z,11.90
2018-04-17T20:25:16.117Z,11.80
2018-04-17T20:30:15.905Z,11.80
2018-04-17T20:33:10.861Z,11.70
2018-04-17T20:35:37.363Z,11.70
2018-04-17T20:38:04.451Z,11.60
2018-04-17T20:40:30.899Z,11.60
2018-04-17T20:42:57.238Z,11.60
2018-04-17T20:45:23.563Z,11.50
2018-04-17T20:47:50.148Z,11.60
2018-04-17T20:50:16.914Z,11.50
2018-04-17T20:52:43.213Z,11.50
2018-04-17T20:55:09.611Z,11.40
2018-04-17T20:57:36.127Z,11.40
2018-04-17T21:00:02.411Z,11.30
2018-04-17T21:02:28.840Z,11.30
2018-04-17T21:04:56.117Z,11.30
2018-04-17T21:07:22.500Z,11.20
2018-04-17T21:09:48.862Z,11.20
2018-04-17T21:12:15.251Z,11.20
2018-04-17T21:14:41.548Z,11.20
2018-04-17T21:17:08.257Z,11.20
2018-04-17T21:19:34.563Z,11.10
2018-04-17T21:22:01.333Z,11.10
2018-04-17T21:24:28.395Z,11.00
2018-04-17T21:26:55.445Z,10.90
2018-04-17T21:29:22.500Z,10.90
2018-04-17T21:31:49.660Z,10.80
2018-04-17T21:34:16.896Z,10.80
2018-04-17T21:36:44.018Z,10.80
2018-04-17T21:39:10.319Z,10.70
2018-04-17T21:41:36.620Z,10.70
2018-04-17T21:44:02.907Z,10.70
2018-04-17T21:46:29.243Z,10.60
2018-04-17T21:48:55.600Z,10.60
2018-04-17T21:51:22.606Z,10.60
2018-04-17T21:53:48.972Z,10.60
2018-04-17T21:56:16.075Z,10.50
2018-04-17T21:58:42.798Z,10.50
2018-04-17T22:01:09.129Z,10.40
2018-04-17T22:03:35.807Z,10.40
2018-04-17T22:06:02.122Z,10.30
2018-04-17T22:11:32.279Z,10.30
2018-04-17T22:13:58.673Z,10.20
2018-04-17T22:16:25.024Z,10.10
2018-04-17T22:18:51.306Z,10.10
2018-04-17T22:21:18.396Z,10.00
2018-04-17T22:23:44.680Z,10.00
2018-04-17T22:26:11.740Z,10.00
2018-04-17T22:28:38.700Z,9.90
2018-04-17T22:31:04.990Z,9.90
2018-04-17T22:33:31.303Z,9.90
2018-04-17T22:35:57.577Z,9.80
2018-04-17T22:38:24.660Z,9.80
2018-04-17T22:40:50.967Z,9.80
2018-04-17T22:43:17.386Z,9.80
2018-04-17T22:45:44.428Z,9.80
2018-04-17T22:48:11.488Z,9.80
2018-04-17T22:50:38.641Z,9.80
2018-04-17T22:53:05.746Z,9.70
2018-04-17T22:55:32.066Z,9.70
2018-04-17T22:57:58.429Z,9.70
2018-04-17T23:00:25.539Z,9.60
2018-04-17T23:02:51.826Z,9.50
2018-04-17T23:05:18.887Z,9.40
2018-04-17T23:07:45.184Z,9.40
2018-04-17T23:10:12.214Z,9.30
2018-04-17T23:12:38.502Z,9.30
2018-04-17T23:15:12.001Z,9.20
2018-04-17T23:17:38.264Z,9.20
2018-04-17T23:20:04.576Z,9.20
2018-04-17T23:22:30.873Z,9.10
2018-04-17T23:24:57.155Z,9.10
2018-04-17T23:27:23.479Z,9.00
2018-04-17T23:29:49.735Z,9.00
2018-04-17T23:32:16.067Z,9.00
2018-04-17T23:34:42.394Z,8.90
2018-04-17T23:37:08.682Z,9.00
2018-04-17T23:39:34.992Z,9.00
2018-04-17T23:42:01.286Z,8.90
2018-04-17T23:44:27.608Z,9.00
2018-04-17T23:46:53.994Z,8.90
2018-04-17T23:49:20.290Z,8.90
2018-04-17T23:51:46.748Z,8.90
2018-04-17T23:54:13.780Z,8.90
2018-04-17T23:56:40.844Z,8.90
2018-04-17T23:59:07.848Z,8.90
